sensor_id;sensor_type;location;lat;lon;timestamp;P1;durP1;ratioP1;P2;durP2;ratioP2
17927;SDS011;9089;58.396;15.544;2022-08-25T00:01:41;2.03;;;1.08;;
17927;SDS011;9089;58.396;15.544;2022-08-25T00:04:08;1.27;;;1.17;;
17927;SDS011;9089;58.396;15.544;2022-08-25T00:06:37;1.60;;;1.00;;
17927;SDS011;9089;58.396;15.544;2022-08-25T00:09:03;1.38;;;1.17;;
17927;SDS011;9089;58.396;15.544;2022-08-25T00:11:30;1.58;;;1.00;;
17927;SDS011;9089;58.396;15.544;2022-08-25T00:13:59;1.20;;;1.10;;
17927;SDS011;9089;58.396;15.544;2022-08-25T00:16:25;2.25;;;1.30;;
17927;SDS011;9089;58.396;15.544;2022-08-25T00:18:52;1.48;;;1.20;;
17927;SDS011;9089;58.396;15.544;2022-08-25T00:21:18;2.17;;;1.40;;
17927;SDS011;9089;58.396;15.544;2022-08-25T00:23:44;3.33;;;1.40;;
17927;SDS011;9089;58.396;15.544;2022-08-25T00:26:10;1.52;;;1.05;;
17927;SDS011;9089;58.396;15.544;2022-08-25T00:28:36;1.27;;;1.08;;
17927;SDS011;9089;58.396;15.544;2022-08-25T00:31:02;1.25;;;1.13;;
17927;SDS011;9089;58.396;15.544;2022-08-25T00:33:29;1.63;;;1.33;;
17927;SDS011;9089;58.396;15.544;2022-08-25T00:35:57;3.60;;;1.02;;
17927;SDS011;9089;58.396;15.544;2022-08-25T00:38:24;1.95;;;1.13;;
17927;SDS011;9089;58.396;15.544;2022-08-25T00:40:49;1.90;;;1.35;;
17927;SDS011;9089;58.396;15.544;2022-08-25T00:43:31;3.65;;;1.48;;
17927;SDS011;9089;58.396;15.544;2022-08-25T00:45:59;1.20;;;1.10;;
17927;SDS011;9089;58.396;15.544;2022-08-25T00:48:24;1.30;;;1.20;;
17927;SDS011;9089;58.396;15.544;2022-08-25T00:50:50;1.08;;;0.98;;
17927;SDS011;9089;58.396;15.544;2022-08-25T00:53:15;1.30;;;1.20;;
17927;SDS011;9089;58.396;15.544;2022-08-25T00:55:41;2.67;;;1.38;;
17927;SDS011;9089;58.396;15.544;2022-08-25T00:58:07;1.58;;;1.10;;
17927;SDS011;9089;58.396;15.544;2022-08-25T01:00:36;1.23;;;1.10;;
17927;SDS011;9089;58.396;15.544;2022-08-25T01:03:04;1.85;;;1.35;;
17927;SDS011;9089;58.396;15.544;2022-08-25T01:05:30;1.30;;;1.20;;
17927;SDS011;9089;58.396;15.544;2022-08-25T01:07:56;1.42;;;1.23;;
17927;SDS011;9089;58.396;15.544;2022-08-25T01:10:22;3.53;;;1.17;;
17927;SDS011;9089;58.396;15.544;2022-08-25T01:12:48;1.17;;;1.00;;
17927;SDS011;9089;58.396;15.544;2022-08-25T01:15:14;1.45;;;1.02;;
17927;SDS011;9089;58.396;15.544;2022-08-25T01:17:44;1.70;;;1.00;;
17927;SDS011;9089;58.396;15.544;2022-08-25T01:20:11;1.20;;;1.02;;
17927;SDS011;9089;58.396;15.544;2022-08-25T01:22:39;2.13;;;1.48;;
17927;SDS011;9089;58.396;15.544;2022-08-25T01:25:06;1.30;;;1.20;;
17927;SDS011;9089;58.396;15.544;2022-08-25T01:27:36;1.30;;;1.20;;
17927;SDS011;9089;58.396;15.544;2022-08-25T01:30:01;3.47;;;1.10;;
17927;SDS011;9089;58.396;15.544;2022-08-25T01:32:27;1.25;;;1.08;;
17927;SDS011;9089;58.396;15.544;2022-08-25T01:34:52;0.98;;;0.98;;
17927;SDS011;9089;58.396;15.544;2022-08-25T01:37:19;1.65;;;1.10;;
17927;SDS011;9089;58.396;15.544;2022-08-25T01:39:46;3.30;;;1.40;;
17927;SDS011;9089;58.396;15.544;2022-08-25T01:42:17;1.30;;;1.20;;
17927;SDS011;9089;58.396;15.544;2022-08-25T01:44:44;2.38;;;1.20;;
17927;SDS011;9089;58.396;15.544;2022-08-25T01:47:10;1.38;;;1.13;;
17927;SDS011;9089;58.396;15.544;2022-08-25T01:49:35;1.73;;;1.27;;
17927;SDS011;9089;58.396;15.544;2022-08-25T01:52:05;1.48;;;1.38;;
17927;SDS011;9089;58.396;15.544;2022-08-25T01:54:31;1.33;;;1.23;;
17927;SDS011;9089;58.396;15.544;2022-08-25T01:56:58;1.50;;;1.40;;
17927;SDS011;9089;58.396;15.544;2022-08-25T01:59:23;1.55;;;1.23;;
17927;SDS011;9089;58.396;15.544;2022-08-25T02:01:50;1.90;;;1.35;;
17927;SDS011;9089;58.396;15.544;2022-08-25T02:04:16;2.30;;;1.02;;
17927;SDS011;9089;58.396;15.544;2022-08-25T02:06:41;1.40;;;1.27;;
17927;SDS011;9089;58.396;15.544;2022-08-25T02:09:08;1.20;;;1.10;;
17927;SDS011;9089;58.396;15.544;2022-08-25T02:11:34;1.25;;;1.20;;
17927;SDS011;9089;58.396;15.544;2022-08-25T02:14:01;3.35;;;1.40;;
17927;SDS011;9089;58.396;15.544;2022-08-25T02:16:28;1.40;;;1.30;;
17927;SDS011;9089;58.396;15.544;2022-08-25T02:18:54;1.70;;;1.25;;
17927;SDS011;9089;58.396;15.544;2022-08-25T02:21:19;1.40;;;1.30;;
17927;SDS011;9089;58.396;15.544;2022-08-25T02:23:45;4.05;;;1.75;;
17927;SDS011;9089;58.396;15.544;2022-08-25T02:26:10;1.50;;;1.30;;
17927;SDS011;9089;58.396;15.544;2022-08-25T02:28:36;1.60;;;1.50;;
17927;SDS011;9089;58.396;15.544;2022-08-25T02:31:03;3.30;;;1.60;;
17927;SDS011;9089;58.396;15.544;2022-08-25T02:33:29;1.60;;;1.30;;
17927;SDS011;9089;58.396;15.544;2022-08-25T02:35:55;1.45;;;1.33;;
17927;SDS011;9089;58.396;15.544;2022-08-25T02:38:21;1.40;;;1.30;;
17927;SDS011;9089;58.396;15.544;2022-08-25T02:40:46;1.05;;;0.95;;
17927;SDS011;9089;58.396;15.544;2022-08-25T02:43:12;1.65;;;1.17;;
17927;SDS011;9089;58.396;15.544;2022-08-25T02:45:37;2.03;;;1.30;;
17927;SDS011;9089;58.396;15.544;2022-08-25T02:48:04;1.40;;;1.30;;
17927;SDS011;9089;58.396;15.544;2022-08-25T02:50:29;1.52;;;1.35;;
17927;SDS011;9089;58.396;15.544;2022-08-25T02:52:55;2.00;;;1.42;;
17927;SDS011;9089;58.396;15.544;2022-08-25T02:55:21;1.20;;;1.10;;
17927;SDS011;9089;58.396;15.544;2022-08-25T02:57:47;1.58;;;1.30;;
17927;SDS011;9089;58.396;15.544;2022-08-25T03:00:14;2.85;;;1.50;;
17927;SDS011;9089;58.396;15.544;2022-08-25T03:02:39;2.75;;;1.38;;
17927;SDS011;9089;58.396;15.544;2022-08-25T03:05:07;1.55;;;1.20;;
17927;SDS011;9089;58.396;15.544;2022-08-25T03:07:33;1.80;;;1.20;;
17927;SDS011;9089;58.396;15.544;2022-08-25T03:09:58;1.58;;;1.48;;
17927;SDS011;9089;58.396;15.544;2022-08-25T03:12:24;2.58;;;1.33;;
17927;SDS011;9089;58.396;15.544;2022-08-25T03:14:49;1.52;;;1.40;;
17927;SDS011;9089;58.396;15.544;2022-08-25T03:17:15;1.60;;;1.50;;
17927;SDS011;9089;58.396;15.544;2022-08-25T03:19:40;1.90;;;1.60;;
17927;SDS011;9089;58.396;15.544;2022-08-25T03:22:07;2.45;;;1.60;;
17927;SDS011;9089;58.396;15.544;2022-08-25T03:24:32;1.90;;;1.55;;
17927;SDS011;9089;58.396;15.544;2022-08-25T03:26:58;1.52;;;1.40;;
17927;SDS011;9089;58.396;15.544;2022-08-25T03:29:24;1.40;;;1.30;;
17927;SDS011;9089;58.396;15.544;2022-08-25T03:31:50;1.70;;;1.42;;
17927;SDS011;9089;58.396;15.544;2022-08-25T03:34:16;1.50;;;1.40;;
17927;SDS011;9089;58.396;15.544;2022-08-25T03:36:42;1.40;;;1.30;;
17927;SDS011;9089;58.396;15.544;2022-08-25T03:39:10;1.13;;;1.02;;
17927;SDS011;9089;58.396;15.544;2022-08-25T03:41:35;1.70;;;1.60;;
17927;SDS011;9089;58.396;15.544;2022-08-25T03:44:02;1.95;;;1.42;;
17927;SDS011;9089;58.396;15.544;2022-08-25T03:46:29;1.80;;;1.30;;
17927;SDS011;9089;58.396;15.544;2022-08-25T03:48:56;1.40;;;1.30;;
17927;SDS011;9089;58.396;15.544;2022-08-25T03:51:22;2.83;;;1.40;;
17927;SDS011;9089;58.396;15.544;2022-08-25T03:53:49;1.27;;;1.20;;
17927;SDS011;9089;58.396;15.544;2022-08-25T03:56:16;1.63;;;1.52;;
17927;SDS011;9089;58.396;15.544;2022-08-25T03:58:42;1.40;;;1.30;;
17927;SDS011;9089;58.396;15.544;2022-08-25T04:01:07;2.47;;;1.42;;
17927;SDS011;9089;58.396;15.544;2022-08-25T04:03:33;1.60;;;1.50;;
17927;SDS011;9089;58.396;15.544;2022-08-25T04:05:59;2.03;;;1.50;;
17927;SDS011;9089;58.396;15.544;2022-08-25T04:08:25;1.73;;;1.50;;
17927;SDS011;9089;58.396;15.544;2022-08-25T04:10:50;3.03;;;1.80;;
17927;SDS011;9089;58.396;15.544;2022-08-25T04:13:17;2.67;;;1.73;;
17927;SDS011;9089;58.396;15.544;2022-08-25T04:15:43;2.25;;;1.42;;
17927;SDS011;9089;58.396;15.544;2022-08-25T04:18:09;1.60;;;1.42;;
17927;SDS011;9089;58.396;15.544;2022-08-25T04:20:35;2.28;;;1.63;;
17927;SDS011;9089;58.396;15.544;2022-08-25T04:23:01;1.77;;;1.67;;
17927;SDS011;9089;58.396;15.544;2022-08-25T04:25:27;1.60;;;1.50;;
17927;SDS011;9089;58.396;15.544;2022-08-25T04:27:52;1.88;;;1.50;;
17927;SDS011;9089;58.396;15.544;2022-08-25T04:30:20;3.03;;;2.10;;
17927;SDS011;9089;58.396;15.544;2022-08-25T04:32:46;1.60;;;1.50;;
17927;SDS011;9089;58.396;15.544;2022-08-25T04:35:12;2.35;;;1.90;;
17927;SDS011;9089;58.396;15.544;2022-08-25T04:37:38;3.25;;;1.92;;
17927;SDS011;9089;58.396;15.544;2022-08-25T04:40:03;1.60;;;1.23;;
17927;SDS011;9089;58.396;15.544;2022-08-25T04:42:29;2.33;;;1.50;;
17927;SDS011;9089;58.396;15.544;2022-08-25T04:44:54;1.95;;;1.75;;
17927;SDS011;9089;58.396;15.544;2022-08-25T04:47:21;2.42;;;1.63;;
17927;SDS011;9089;58.396;15.544;2022-08-25T04:49:47;2.50;;;1.33;;
17927;SDS011;9089;58.396;15.544;2022-08-25T04:52:12;3.42;;;1.88;;
17927;SDS011;9089;58.396;15.544;2022-08-25T04:54:38;1.95;;;1.85;;
17927;SDS011;9089;58.396;15.544;2022-08-25T04:57:03;1.88;;;1.77;;
17927;SDS011;9089;58.396;15.544;2022-08-25T04:59:29;4.13;;;1.92;;
17927;SDS011;9089;58.396;15.544;2022-08-25T05:01:54;2.15;;;1.95;;
17927;SDS011;9089;58.396;15.544;2022-08-25T05:04:22;2.35;;;2.15;;
17927;SDS011;9089;58.396;15.544;2022-08-25T05:06:48;3.70;;;1.95;;
17927;SDS011;9089;58.396;15.544;2022-08-25T05:09:13;2.17;;;1.98;;
17927;SDS011;9089;58.396;15.544;2022-08-25T05:11:39;2.42;;;2.20;;
17927;SDS011;9089;58.396;15.544;2022-08-25T05:14:04;2.60;;;2.20;;
17927;SDS011;9089;58.396;15.544;2022-08-25T05:16:35;3.95;;;2.10;;
17927;SDS011;9089;58.396;15.544;2022-08-25T05:19:01;3.00;;;2.25;;
17927;SDS011;9089;58.396;15.544;2022-08-25T05:21:27;4.57;;;2.20;;
17927;SDS011;9089;58.396;15.544;2022-08-25T05:23:54;3.38;;;2.22;;
17927;SDS011;9089;58.396;15.544;2022-08-25T05:26:21;2.75;;;2.05;;
17927;SDS011;9089;58.396;15.544;2022-08-25T05:28:47;3.08;;;1.88;;
17927;SDS011;9089;58.396;15.544;2022-08-25T05:31:13;8.20;;;3.25;;
17927;SDS011;9089;58.396;15.544;2022-08-25T05:33:39;3.30;;;2.10;;
17927;SDS011;9089;58.396;15.544;2022-08-25T05:36:05;2.13;;;1.92;;
17927;SDS011;9089;58.396;15.544;2022-08-25T05:38:33;2.40;;;2.20;;
17927;SDS011;9089;58.396;15.544;2022-08-25T05:40:59;4.32;;;2.00;;
17927;SDS011;9089;58.396;15.544;2022-08-25T05:43:24;2.30;;;2.13;;
17927;SDS011;9089;58.396;15.544;2022-08-25T05:45:52;2.20;;;2.00;;
17927;SDS011;9089;58.396;15.544;2022-08-25T05:48:17;2.15;;;1.95;;
17927;SDS011;9089;58.396;15.544;2022-08-25T05:50:49;2.92;;;2.60;;
17927;SDS011;9089;58.396;15.544;2022-08-25T05:53:15;3.67;;;2.30;;
17927;SDS011;9089;58.396;15.544;2022-08-25T05:55:44;4.95;;;2.35;;
17927;SDS011;9089;58.396;15.544;2022-08-25T05:58:09;2.33;;;2.10;;
17927;SDS011;9089;58.396;15.544;2022-08-25T06:00:35;6.15;;;2.05;;
17927;SDS011;9089;58.396;15.544;2022-08-25T06:03:01;2.40;;;2.20;;
17927;SDS011;9089;58.396;15.544;2022-08-25T06:05:26;2.78;;;2.20;;
17927;SDS011;9089;58.396;15.544;2022-08-25T06:07:53;2.58;;;1.98;;
17927;SDS011;9089;58.396;15.544;2022-08-25T06:10:19;1.77;;;1.65;;
17927;SDS011;9089;58.396;15.544;2022-08-25T06:12:47;2.95;;;2.25;;
17927;SDS011;9089;58.396;15.544;2022-08-25T06:15:14;2.97;;;2.00;;
17927;SDS011;9089;58.396;15.544;2022-08-25T06:17:41;2.83;;;2.03;;
17927;SDS011;9089;58.396;15.544;2022-08-25T06:20:08;3.47;;;2.20;;
17927;SDS011;9089;58.396;15.544;2022-08-25T06:22:34;2.95;;;1.58;;
17927;SDS011;9089;58.396;15.544;2022-08-25T06:24:59;1.73;;;1.63;;
17927;SDS011;9089;58.396;15.544;2022-08-25T06:27:25;2.40;;;1.55;;
17927;SDS011;9089;58.396;15.544;2022-08-25T06:29:52;1.83;;;1.73;;
17927;SDS011;9089;58.396;15.544;2022-08-25T06:32:17;6.95;;;2.03;;
17927;SDS011;9089;58.396;15.544;2022-08-25T06:34:43;3.17;;;2.03;;
17927;SDS011;9089;58.396;15.544;2022-08-25T06:37:08;1.40;;;1.30;;
17927;SDS011;9089;58.396;15.544;2022-08-25T06:39:34;2.35;;;1.70;;
17927;SDS011;9089;58.396;15.544;2022-08-25T06:41:59;1.85;;;1.63;;
17927;SDS011;9089;58.396;15.544;2022-08-25T06:44:25;2.28;;;1.63;;
17927;SDS011;9089;58.396;15.544;2022-08-25T06:46:53;3.03;;;1.40;;
17927;SDS011;9089;58.396;15.544;2022-08-25T06:49:18;3.40;;;1.38;;
17927;SDS011;9089;58.396;15.544;2022-08-25T06:51:44;1.92;;;1.20;;
17927;SDS011;9089;58.396;15.544;2022-08-25T06:54:10;1.65;;;1.48;;
17927;SDS011;9089;58.396;15.544;2022-08-25T06:56:35;2.13;;;0.93;;
17927;SDS011;9089;58.396;15.544;2022-08-25T06:59:01;2.15;;;1.05;;
17927;SDS011;9089;58.396;15.544;2022-08-25T07:01:27;2.25;;;1.10;;
17927;SDS011;9089;58.396;15.544;2022-08-25T07:03:54;2.25;;;1.20;;
17927;SDS011;9089;58.396;15.544;2022-08-25T07:06:21;2.45;;;1.10;;
17927;SDS011;9089;58.396;15.544;2022-08-25T07:08:47;2.17;;;0.75;;
17927;SDS011;9089;58.396;15.544;2022-08-25T07:11:13;2.25;;;1.02;;
17927;SDS011;9089;58.396;15.544;2022-08-25T07:13:39;1.95;;;0.95;;
17927;SDS011;9089;58.396;15.544;2022-08-25T07:16:05;2.20;;;1.05;;
17927;SDS011;9089;58.396;15.544;2022-08-25T07:18:31;2.80;;;1.00;;
17927;SDS011;9089;58.396;15.544;2022-08-25T07:20:58;1.45;;;0.90;;
17927;SDS011;9089;58.396;15.544;2022-08-25T07:23:24;2.95;;;1.30;;
17927;SDS011;9089;58.396;15.544;2022-08-25T07:25:50;1.23;;;0.80;;
17927;SDS011;9089;58.396;15.544;2022-08-25T07:28:16;2.22;;;0.90;;
17927;SDS011;9089;58.396;15.544;2022-08-25T07:30:42;3.15;;;1.25;;
17927;SDS011;9089;58.396;15.544;2022-08-25T07:33:08;3.17;;;1.00;;
17927;SDS011;9089;58.396;15.544;2022-08-25T07:35:33;2.55;;;0.73;;
17927;SDS011;9089;58.396;15.544;2022-08-25T07:38:02;3.28;;;0.90;;
17927;SDS011;9089;58.396;15.544;2022-08-25T07:40:29;1.17;;;0.63;;
17927;SDS011;9089;58.396;15.544;2022-08-25T07:42:56;0.68;;;0.50;;
17927;SDS011;9089;58.396;15.544;2022-08-25T07:45:23;2.05;;;0.95;;
17927;SDS011;9089;58.396;15.544;2022-08-25T07:47:54;1.00;;;0.50;;
17927;SDS011;9089;58.396;15.544;2022-08-25T07:50:19;1.38;;;0.57;;
17927;SDS011;9089;58.396;15.544;2022-08-25T07:52:45;1.15;;;0.68;;
17927;SDS011;9089;58.396;15.544;2022-08-25T07:55:13;0.88;;;0.50;;
17927;SDS011;9089;58.396;15.544;2022-08-25T07:57:38;1.42;;;0.57;;
17927;SDS011;9089;58.396;15.544;2022-08-25T08:00:04;1.27;;;0.50;;
17927;SDS011;9089;58.396;15.544;2022-08-25T08:02:37;2.75;;;0.60;;
17927;SDS011;9089;58.396;15.544;2022-08-25T08:05:03;2.83;;;0.60;;
17927;SDS011;9089;58.396;15.544;2022-08-25T08:07:29;0.85;;;0.30;;
17927;SDS011;9089;58.396;15.544;2022-08-25T08:09:55;2.95;;;0.70;;
17927;SDS011;9089;58.396;15.544;2022-08-25T08:12:22;1.77;;;0.47;;
17927;SDS011;9089;58.396;15.544;2022-08-25T08:14:48;1.98;;;0.43;;
17927;SDS011;9089;58.396;15.544;2022-08-25T08:17:14;2.25;;;0.63;;
17927;SDS011;9089;58.396;15.544;2022-08-25T08:19:40;1.55;;;0.60;;
17927;SDS011;9089;58.396;15.544;2022-08-25T08:22:05;0.68;;;0.55;;
17927;SDS011;9089;58.396;15.544;2022-08-25T08:24:32;0.93;;;0.60;;
17927;SDS011;9089;58.396;15.544;2022-08-25T08:27:03;0.93;;;0.50;;
17927;SDS011;9089;58.396;15.544;2022-08-25T08:29:30;1.17;;;0.70;;
17927;SDS011;9089;58.396;15.544;2022-08-25T08:31:55;0.88;;;0.50;;
17927;SDS011;9089;58.396;15.544;2022-08-25T08:34:21;3.95;;;0.82;;
17927;SDS011;9089;58.396;15.544;2022-08-25T08:36:48;1.10;;;0.50;;
17927;SDS011;9089;58.396;15.544;2022-08-25T08:39:13;0.52;;;0.40;;
17927;SDS011;9089;58.396;15.544;2022-08-25T08:41:45;1.75;;;0.60;;
17927;SDS011;9089;58.396;15.544;2022-08-25T08:44:38;1.33;;;0.60;;
17927;SDS011;9089;58.396;15.544;2022-08-25T08:47:07;1.02;;;0.63;;
17927;SDS011;9089;58.396;15.544;2022-08-25T08:49:36;1.00;;;0.50;;
17927;SDS011;9089;58.396;15.544;2022-08-25T08:52:03;0.60;;;0.40;;
17927;SDS011;9089;58.396;15.544;2022-08-25T08:54:30;3.33;;;0.60;;
17927;SDS011;9089;58.396;15.544;2022-08-25T08:57:00;0.70;;;0.47;;
17927;SDS011;9089;58.396;15.544;2022-08-25T08:59:27;2.35;;;0.70;;
17927;SDS011;9089;58.396;15.544;2022-08-25T09:01:56;1.45;;;0.47;;
17927;SDS011;9089;58.396;15.544;2022-08-25T09:04:25;1.38;;;0.40;;
17927;SDS011;9089;58.396;15.544;2022-08-25T09:06:53;2.17;;;0.40;;
17927;SDS011;9089;58.396;15.544;2022-08-25T09:09:20;0.70;;;0.40;;
17927;SDS011;9089;58.396;15.544;2022-08-25T09:11:50;2.10;;;0.50;;
17927;SDS011;9089;58.396;15.544;2022-08-25T09:14:24;1.90;;;0.60;;
17927;SDS011;9089;58.396;15.544;2022-08-25T09:16:54;1.50;;;0.40;;
17927;SDS011;9089;58.396;15.544;2022-08-25T09:19:36;0.90;;;0.40;;
17927;SDS011;9089;58.396;15.544;2022-08-25T09:22:07;0.88;;;0.50;;
17927;SDS011;9089;58.396;15.544;2022-08-25T09:24:40;1.17;;;0.40;;
17927;SDS011;9089;58.396;15.544;2022-08-25T09:27:10;0.50;;;0.32;;
17927;SDS011;9089;58.396;15.544;2022-08-25T09:29:44;1.55;;;0.50;;
17927;SDS011;9089;58.396;15.544;2022-08-25T09:32:11;0.70;;;0.40;;
17927;SDS011;9089;58.396;15.544;2022-08-25T09:34:39;1.80;;;0.50;;
17927;SDS011;9089;58.396;15.544;2022-08-25T09:37:04;1.65;;;0.50;;
17927;SDS011;9089;58.396;15.544;2022-08-25T09:39:30;1.58;;;0.20;;
17927;SDS011;9089;58.396;15.544;2022-08-25T09:41:56;1.70;;;0.25;;
17927;SDS011;9089;58.396;15.544;2022-08-25T09:44:22;0.77;;;0.40;;
17927;SDS011;9089;58.396;15.544;2022-08-25T09:46:56;1.85;;;0.40;;
17927;SDS011;9089;58.396;15.544;2022-08-25T09:49:30;0.40;;;0.20;;
17927;SDS011;9089;58.396;15.544;2022-08-25T09:52:21;1.38;;;0.30;;
17927;SDS011;9089;58.396;15.544;2022-08-25T09:54:42;0.32;;;0.22;;
17927;SDS011;9089;58.396;15.544;2022-08-25T09:57:08;0.45;;;0.35;;
17927;SDS011;9089;58.396;15.544;2022-08-25T09:59:51;0.80;;;0.40;;
17927;SDS011;9089;58.396;15.544;2022-08-25T10:02:20;1.33;;;0.50;;
17927;SDS011;9089;58.396;15.544;2022-08-25T10:04:48;0.60;;;0.30;;
17927;SDS011;9089;58.396;15.544;2022-08-25T10:07:20;0.50;;;0.28;;
17927;SDS011;9089;58.396;15.544;2022-08-25T10:09:50;1.10;;;0.30;;
17927;SDS011;9089;58.396;15.544;2022-08-25T10:12:16;1.75;;;0.47;;
17927;SDS011;9089;58.396;15.544;2022-08-25T10:14:43;0.82;;;0.50;;
17927;SDS011;9089;58.396;15.544;2022-08-25T10:17:13;0.30;;;0.28;;
17927;SDS011;9089;58.396;15.544;2022-08-25T10:19:39;0.50;;;0.30;;
17927;SDS011;9089;58.396;15.544;2022-08-25T10:22:06;1.30;;;0.30;;
17927;SDS011;9089;58.396;15.544;2022-08-25T10:24:33;0.60;;;0.40;;
17927;SDS011;9089;58.396;15.544;2022-08-25T10:27:00;0.90;;;0.40;;
17927;SDS011;9089;58.396;15.544;2022-08-25T10:29:30;0.80;;;0.20;;
17927;SDS011;9089;58.396;15.544;2022-08-25T10:32:00;0.93;;;0.40;;
17927;SDS011;9089;58.396;15.544;2022-08-25T10:34:36;0.77;;;0.35;;
17927;SDS011;9089;58.396;15.544;2022-08-25T10:37:08;1.52;;;0.40;;
17927;SDS011;9089;58.396;15.544;2022-08-25T10:39:39;0.65;;;0.20;;
17927;SDS011;9089;58.396;15.544;2022-08-25T10:42:13;0.80;;;0.40;;
17927;SDS011;9089;58.396;15.544;2022-08-25T10:44:44;1.38;;;0.30;;
17927;SDS011;9089;58.396;15.544;2022-08-25T10:47:39;0.55;;;0.30;;
17927;SDS011;9089;58.396;15.544;2022-08-25T10:50:08;0.75;;;0.30;;
17927;SDS011;9089;58.396;15.544;2022-08-25T10:52:43;0.40;;;0.25;;
17927;SDS011;9089;58.396;15.544;2022-08-25T10:55:16;1.10;;;0.40;;
17927;SDS011;9089;58.396;15.544;2022-08-25T10:57:44;1.40;;;0.50;;
17927;SDS011;9089;58.396;15.544;2022-08-25T11:00:17;0.57;;;0.40;;
17927;SDS011;9089;58.396;15.544;2022-08-25T11:05:28;1.63;;;0.60;;
17927;SDS011;9089;58.396;15.544;2022-08-25T11:07:57;0.30;;;0.30;;
17927;SDS011;9089;58.396;15.544;2022-08-25T11:10:28;0.50;;;0.30;;
17927;SDS011;9089;58.396;15.544;2022-08-25T11:12:56;0.82;;;0.60;;
17927;SDS011;9089;58.396;15.544;2022-08-25T11:15:24;0.70;;;0.40;;
17927;SDS011;9089;58.396;15.544;2022-08-25T11:17:51;0.47;;;0.40;;
17927;SDS011;9089;58.396;15.544;2022-08-25T11:20:18;0.50;;;0.30;;
17927;SDS011;9089;58.396;15.544;2022-08-25T11:22:46;1.25;;;0.50;;
17927;SDS011;9089;58.396;15.544;2022-08-25T11:25:13;0.50;;;0.40;;
17927;SDS011;9089;58.396;15.544;2022-08-25T11:27:44;1.13;;;0.40;;
17927;SDS011;9089;58.396;15.544;2022-08-25T11:30:11;1.02;;;0.50;;
17927;SDS011;9089;58.396;15.544;2022-08-25T11:32:38;1.10;;;0.30;;
17927;SDS011;9089;58.396;15.544;2022-08-25T11:35:06;0.45;;;0.32;;
17927;SDS011;9089;58.396;15.544;2022-08-25T11:37:32;0.73;;;0.30;;
17927;SDS011;9089;58.396;15.544;2022-08-25T11:40:13;1.02;;;0.30;;
17927;SDS011;9089;58.396;15.544;2022-08-25T11:42:48;1.08;;;0.40;;
17927;SDS011;9089;58.396;15.544;2022-08-25T11:45:21;0.40;;;0.30;;
17927;SDS011;9089;58.396;15.544;2022-08-25T11:47:57;0.93;;;0.32;;
17927;SDS011;9089;58.396;15.544;2022-08-25T11:50:26;2.13;;;0.30;;
17927;SDS011;9089;58.396;15.544;2022-08-25T11:52:52;1.38;;;0.30;;
17927;SDS011;9089;58.396;15.544;2022-08-25T11:55:20;2.17;;;0.40;;
17927;SDS011;9089;58.396;15.544;2022-08-25T11:57:48;1.73;;;0.60;;
17927;SDS011;9089;58.396;15.544;2022-08-25T12:00:15;0.50;;;0.30;;
17927;SDS011;9089;58.396;15.544;2022-08-25T12:02:59;0.43;;;0.30;;
17927;SDS011;9089;58.396;15.544;2022-08-25T12:05:48;1.58;;;0.30;;
17927;SDS011;9089;58.396;15.544;2022-08-25T12:08:14;1.08;;;0.40;;
17927;SDS011;9089;58.396;15.544;2022-08-25T12:11:02;0.40;;;0.40;;
17927;SDS011;9089;58.396;15.544;2022-08-25T12:16:36;1.27;;;0.30;;
17927;SDS011;9089;58.396;15.544;2022-08-25T12:21:42;0.75;;;0.30;;
17927;SDS011;9089;58.396;15.544;2022-08-25T12:24:12;1.02;;;0.50;;
17927;SDS011;9089;58.396;15.544;2022-08-25T12:26:40;2.05;;;0.20;;
17927;SDS011;9089;58.396;15.544;2022-08-25T12:29:07;0.35;;;0.25;;
17927;SDS011;9089;58.396;15.544;2022-08-25T12:31:49;1.00;;;0.40;;
17927;SDS011;9089;58.396;15.544;2022-08-25T12:36:56;1.23;;;0.22;;
17927;SDS011;9089;58.396;15.544;2022-08-25T12:39:27;0.30;;;0.30;;
17927;SDS011;9089;58.396;15.544;2022-08-25T12:41:54;0.60;;;0.30;;
17927;SDS011;9089;58.396;15.544;2022-08-25T12:44:32;0.52;;;0.30;;
17927;SDS011;9089;58.396;15.544;2022-08-25T12:47:06;0.75;;;0.40;;
17927;SDS011;9089;58.396;15.544;2022-08-25T12:49:34;1.65;;;0.35;;
17927;SDS011;9089;58.396;15.544;2022-08-25T12:52:01;2.25;;;0.30;;
17927;SDS011;9089;58.396;15.544;2022-08-25T12:54:35;0.45;;;0.30;;
17927;SDS011;9089;58.396;15.544;2022-08-25T12:57:03;0.40;;;0.20;;
17927;SDS011;9089;58.396;15.544;2022-08-25T12:59:34;0.52;;;0.32;;
17927;SDS011;9089;58.396;15.544;2022-08-25T13:04:56;0.70;;;0.40;;
17927;SDS011;9089;58.396;15.544;2022-08-25T13:07:27;0.82;;;0.30;;
17927;SDS011;9089;58.396;15.544;2022-08-25T13:10:11;0.85;;;0.40;;
17927;SDS011;9089;58.396;15.544;2022-08-25T13:12:39;0.60;;;0.22;;
17927;SDS011;9089;58.396;15.544;2022-08-25T13:15:06;1.48;;;0.40;;
17927;SDS011;9089;58.396;15.544;2022-08-25T13:17:36;0.57;;;0.30;;
17927;SDS011;9089;58.396;15.544;2022-08-25T13:20:16;1.23;;;0.25;;
17927;SDS011;9089;58.396;15.544;2022-08-25T13:22:43;0.90;;;0.22;;
17927;SDS011;9089;58.396;15.544;2022-08-25T13:25:13;2.47;;;0.38;;
17927;SDS011;9089;58.396;15.544;2022-08-25T13:27:39;0.80;;;0.50;;
17927;SDS011;9089;58.396;15.544;2022-08-25T13:30:05;1.17;;;0.35;;
17927;SDS011;9089;58.396;15.544;2022-08-25T13:32:31;0.40;;;0.20;;
17927;SDS011;9089;58.396;15.544;2022-08-25T13:35:09;1.08;;;0.40;;
17927;SDS011;9089;58.396;15.544;2022-08-25T13:37:37;0.30;;;0.20;;
17927;SDS011;9089;58.396;15.544;2022-08-25T13:40:06;0.82;;;0.20;;
17927;SDS011;9089;58.396;15.544;2022-08-25T13:42:32;1.55;;;0.22;;
17927;SDS011;9089;58.396;15.544;2022-08-25T13:44:57;0.98;;;0.40;;
17927;SDS011;9089;58.396;15.544;2022-08-25T13:47:33;1.90;;;0.30;;
17927;SDS011;9089;58.396;15.544;2022-08-25T13:50:13;0.40;;;0.22;;
17927;SDS011;9089;58.396;15.544;2022-08-25T13:52:40;0.60;;;0.28;;
17927;SDS011;9089;58.396;15.544;2022-08-25T13:55:06;0.40;;;0.15;;
17927;SDS011;9089;58.396;15.544;2022-08-25T13:57:32;0.45;;;0.20;;
17927;SDS011;9089;58.396;15.544;2022-08-25T13:59:59;0.63;;;0.35;;
17927;SDS011;9089;58.396;15.544;2022-08-25T14:02:38;0.20;;;0.20;;
17927;SDS011;9089;58.396;15.544;2022-08-25T14:05:04;0.20;;;0.17;;
17927;SDS011;9089;58.396;15.544;2022-08-25T14:07:30;0.60;;;0.30;;
17927;SDS011;9089;58.396;15.544;2022-08-25T14:09:59;0.85;;;0.35;;
17927;SDS011;9089;58.396;15.544;2022-08-25T14:12:26;0.35;;;0.25;;
17927;SDS011;9089;58.396;15.544;2022-08-25T14:14:56;0.80;;;0.20;;
17927;SDS011;9089;58.396;15.544;2022-08-25T14:17:21;1.48;;;0.20;;
17927;SDS011;9089;58.396;15.544;2022-08-25T14:19:47;0.50;;;0.20;;
17927;SDS011;9089;58.396;15.544;2022-08-25T14:22:13;0.65;;;0.30;;
17927;SDS011;9089;58.396;15.544;2022-08-25T14:24:38;0.90;;;0.30;;
17927;SDS011;9089;58.396;15.544;2022-08-25T14:27:05;0.55;;;0.30;;
17927;SDS011;9089;58.396;15.544;2022-08-25T14:29:31;0.20;;;0.13;;
17927;SDS011;9089;58.396;15.544;2022-08-25T14:31:56;0.57;;;0.35;;
17927;SDS011;9089;58.396;15.544;2022-08-25T14:34:23;1.13;;;0.38;;
17927;SDS011;9089;58.396;15.544;2022-08-25T14:36:49;0.40;;;0.20;;
17927;SDS011;9089;58.396;15.544;2022-08-25T14:39:15;0.55;;;0.30;;
17927;SDS011;9089;58.396;15.544;2022-08-25T14:41:41;0.47;;;0.20;;
17927;SDS011;9089;58.396;15.544;2022-08-25T14:44:09;0.90;;;0.30;;
17927;SDS011;9089;58.396;15.544;2022-08-25T14:46:35;0.40;;;0.20;;
17927;SDS011;9089;58.396;15.544;2022-08-25T14:49:02;2.22;;;0.40;;
17927;SDS011;9089;58.396;15.544;2022-08-25T14:51:28;0.40;;;0.20;;
17927;SDS011;9089;58.396;15.544;2022-08-25T14:53:55;0.57;;;0.30;;
17927;SDS011;9089;58.396;15.544;2022-08-25T14:56:21;2.47;;;0.30;;
17927;SDS011;9089;58.396;15.544;2022-08-25T14:58:47;0.88;;;0.30;;
17927;SDS011;9089;58.396;15.544;2022-08-25T15:01:14;0.65;;;0.30;;
17927;SDS011;9089;58.396;15.544;2022-08-25T15:03:41;0.40;;;0.20;;
17927;SDS011;9089;58.396;15.544;2022-08-25T15:06:08;0.70;;;0.35;;